Time;durP1;ratioP1;P1;durP2;ratioP2;P2;SDS_P1;SDS_P2;PMS_P1;PMS_P2;Temp;Humidity;BMP_temperature;BMP_pressure;BME280_temperature;BME280_humidity;BME280_pressure;Samples;Min_cycle;Max_cycle;Signal;HPM_P1;HPM_P2
2023/05/07 00:01:12;;;;;;;;;8.67;6.67;;;;;16.96;79.66;101202.78;5034920;28;46585;-73
2023/05/07 00:03:37;;;;;;;;;7.67;6.67;;;;;16.69;80.33;101159.56;5035249;28;45238;-73
2023/05/07 00:06:03;;;;;;;;;8.33;7.33;;;;;16.86;80.18;101199.59;5035095;28;45226;-72
2023/05/07 00:08:28;;;;;;;;;16.00;10.00;;;;;16.92;80.11;101211.81;5035054;28;45421;-73
2023/05/07 00:10:54;;;;;;;;;10.00;7.67;;;;;16.93;80.38;101210.88;5035059;28;46116;-72
2023/05/07 00:13:19;;;;;;;;;12.00;10.33;;;;;16.90;80.42;101205.69;5034867;28;45460;-72
2023/05/07 00:15:45;;;;;;;;;11.00;10.33;;;;;16.91;80.71;101196.78;5035202;28;45301;-73
2023/05/07 00:18:10;;;;;;;;;13.00;10.00;;;;;16.92;80.63;101205.63;5034952;28;45604;-72
2023/05/07 00:20:35;;;;;;;;;11.67;10.67;;;;;16.97;80.39;101211.63;5034656;28;46501;-71
2023/05/07 00:23:01;;;;;;;;;18.67;13.33;;;;;16.69;80.16;101164.88;5034360;28;45465;-73
2023/05/07 00:25:26;;;;;;;;;9.67;9.33;;;;;16.99;80.81;101218.63;5034810;28;45438;-72
2023/05/07 00:27:52;;;;;;;;;13.33;10.00;;;;;16.85;80.93;101189.88;5035132;28;45441;-73
2023/05/07 00:30:17;;;;;;;;;10.33;9.67;;;;;17.00;80.27;101208.81;5034670;28;46552;-72
2023/05/07 00:32:45;;;;;;;;;11.33;9.00;;;;;16.97;80.78;101209.81;5034516;28;45371;-73
2023/05/07 00:35:11;;;;;;;;;10.33;8.33;;;;;16.96;80.81;101208.09;5034480;28;45406;-72
2023/05/07 00:37:36;;;;;;;;;11.67;10.67;;;;;16.96;80.76;101216.09;5034629;28;45686;-72
2023/05/07 00:40:04;;;;;;;;;11.33;11.33;;;;;16.92;80.91;101197.63;5034806;28;45426;-72
2023/05/07 00:42:32;;;;;;;;;10.00;10.00;;;;;16.99;80.92;101202.66;5034361;28;45396;-72
2023/05/07 00:44:58;;;;;;;;;16.33;10.67;;;;;16.96;81.05;101202.78;5034430;28;45420;-72
2023/05/07 00:47:25;;;;;;;;;12.00;11.33;;;;;16.99;80.77;101205.31;5034976;28;45388;-72
2023/05/07 00:49:50;;;;;;;;;14.00;11.00;;;;;17.01;80.85;101206.09;5034387;28;47053;-72
2023/05/07 00:52:19;;;;;;;;;13.67;13.33;;;;;17.02;80.80;101207.84;5034337;28;45194;-71
2023/05/07 00:54:44;;;;;;;;;11.33;11.33;;;;;16.92;80.92;101187.00;5034591;28;45425;-72
2023/05/07 00:57:13;;;;;;;;;19.00;13.67;;;;;16.91;80.72;101191.47;5034536;28;45362;-72
2023/05/07 00:59:40;;;;;;;;;17.67;15.67;;;;;16.99;81.02;101193.78;5034138;28;47360;-72
2023/05/07 01:02:06;;;;;;;;;14.67;12.67;;;;;16.98;80.86;101189.41;5034242;28;45755;-71
2023/05/07 01:04:31;;;;;;;;;15.67;11.00;;;;;16.79;81.18;101155.59;5034351;28;45319;-70
2023/05/07 01:06:58;;;;;;;;;17.33;13.00;;;;;16.79;81.11;101165.34;5034650;28;45337;-72
2023/05/07 01:09:25;;;;;;;;;14.67;12.00;;;;;16.94;81.13;101194.00;5034190;28;45521;-71
2023/05/07 01:11:51;;;;;;;;;16.67;12.67;;;;;16.85;81.92;101178.41;5034286;28;45417;-71
2023/05/07 01:14:17;;;;;;;;;15.00;11.33;;;;;16.92;82.07;101185.22;5034368;28;45485;-72
2023/05/07 01:16:42;;;;;;;;;13.67;9.67;;;;;16.94;81.76;101186.00;5034288;28;45414;-72
2023/05/07 01:19:10;;;;;;;;;15.00;12.33;;;;;16.95;82.10;101179.75;5034047;28;46381;-72
2023/05/07 01:21:37;;;;;;;;;13.67;12.67;;;;;16.97;81.91;101179.69;5033846;27;45292;-72
2023/05/07 01:24:04;;;;;;;;;10.67;9.00;;;;;16.95;82.02;101169.13;5034086;28;45814;-72
2023/05/07 01:26:30;;;;;;;;;13.67;13.33;;;;;16.98;82.00;101182.28;5034082;28;45476;-72
2023/05/07 01:28:55;;;;;;;;;14.00;12.33;;;;;16.92;81.53;101163.94;5033880;28;45348;-72
2023/05/07 01:31:23;;;;;;;;;13.67;12.00;;;;;16.96;81.59;101175.31;5033992;28;45422;-73
2023/05/07 01:33:51;;;;;;;;;13.00;11.67;;;;;17.02;81.69;101175.91;5034684;28;45300;-72
2023/05/07 01:36:20;;;;;;;;;17.00;13.00;;;;;16.95;81.58;101160.25;5036956;28;45462;-72
2023/05/07 01:38:46;;;;;;;;;12.67;12.67;;;;;17.00;81.81;101169.78;5036452;28;46633;-73
2023/05/07 01:41:12;;;;;;;;;17.33;14.67;;;;;17.03;81.88;101177.66;5036843;28;45384;-72
2023/05/07 01:43:39;;;;;;;;;11.67;11.67;;;;;16.96;81.90;101164.66;5036638;28;45437;-71
2023/05/07 01:46:05;;;;;;;;;12.67;12.00;;;;;17.02;82.16;101175.03;5037202;28;45822;-71
2023/05/07 01:48:32;;;;;;;;;13.67;10.67;;;;;17.01;82.51;101171.50;5036368;28;46238;-71
2023/05/07 01:50:58;;;;;;;;;16.00;12.67;;;;;17.02;82.05;101177.69;5036822;28;45454;-71
2023/05/07 01:53:23;;;;;;;;;16.50;15.50;;;;;17.04;82.79;101189.16;5036716;28;45413;-71
2023/05/07 01:55:48;;;;;;;;;18.00;12.67;;;;;17.01;83.01;101184.81;5036819;28;45407;-71
2023/05/07 01:58:14;;;;;;;;;15.00;11.67;;;;;16.95;82.48;101176.22;5036608;28;46221;-71
2023/05/07 02:00:40;;;;;;;;;20.67;20.00;;;;;17.00;82.67;101172.44;5036342;28;45371;-71
2023/05/07 02:03:05;;;;;;;;;19.00;13.00;;;;;16.97;83.04;101174.38;5036720;28;45363;-71
2023/05/07 02:05:31;;;;;;;;;18.33;13.00;;;;;16.93;82.98;101172.78;5036811;28;45465;-71
2023/05/07 02:07:56;;;;;;;;;17.33;17.33;;;;;16.91;83.10;101158.69;5036287;28;45610;-72
2023/05/07 02:10:22;;;;;;;;;15.67;15.67;;;;;16.90;83.18;101162.28;5036457;28;45386;-71
2023/05/07 02:12:47;;;;;;;;;15.33;15.33;;;;;16.98;82.74;101173.47;5036427;28;45614;-71
2023/05/07 02:15:12;;;;;;;;;23.00;16.67;;;;;16.95;82.69;101162.91;5036689;28;45333;-71
2023/05/07 02:17:59;;;;;;;;;13.00;12.67;;;;;17.01;82.48;101181.31;5036384;28;45383;-72
2023/05/07 02:20:25;;;;;;;;;17.00;14.67;;;;;16.97;82.72;101174.38;5036073;28;45227;-72
2023/05/07 02:22:50;;;;;;;;;18.00;14.00;;;;;17.01;82.65;101181.31;5035841;28;45321;-69
2023/05/07 02:25:15;;;;;;;;;16.67;13.67;;;;;16.97;82.73;101177.03;5036762;28;45380;-71
2023/05/07 02:27:41;;;;;;;;;18.33;17.00;;;;;17.00;82.06;101192.88;5036252;28;46558;-71
2023/05/07 02:30:07;;;;;;;;;19.67;18.67;;;;;16.94;82.34;101174.50;5036333;28;45336;-71
2023/05/07 02:32:32;;;;;;;;;16.00;14.33;;;;;17.01;82.47;101194.59;5036081;28;45230;-71
2023/05/07 02:34:57;;;;;;;;;16.67;14.33;;;;;16.98;82.40;101195.59;5036347;28;45292;-71
2023/05/07 02:37:22;;;;;;;;;21.00;15.00;;;;;16.95;82.34;101195.72;5035744;28;46477;-73
2023/05/07 02:39:48;;;;;;;;;18.00;17.33;;;;;16.95;82.32;101189.53;5035895;28;45301;-73
2023/05/07 02:42:13;;;;;;;;;16.67;14.67;;;;;16.97;82.78;101196.50;5036233;28;45385;-73
2023/05/07 02:44:38;;;;;;;;;19.00;16.00;;;;;16.95;82.80;101200.16;5035579;28;45661;-73
2023/05/07 02:47:04;;;;;;;;;15.67;13.67;;;;;16.94;83.13;101198.44;5035788;28;47502;-72
2023/05/07 02:49:29;;;;;;;;;18.33;16.67;;;;;16.93;82.92;101194.91;5035948;28;45691;-72
2023/05/07 02:51:55;;;;;;;;;23.33;18.67;;;;;16.94;82.75;101201.97;5035883;28;45300;-72
2023/05/07 02:54:21;;;;;;;;;19.67;17.00;;;;;16.96;83.23;101210.78;5036107;27;45332;-72
2023/05/07 02:56:46;;;;;;;;;19.33;17.33;;;;;16.95;83.11;101209.03;5017595;28;46685;-72
2023/05/07 02:59:11;;;;;;;;;19.33;19.33;;;;;16.75;83.04;101169.06;5035637;28;45484;-73
2023/05/07 03:01:36;;;;;;;;;21.00;18.33;;;;;16.86;82.83;101198.72;5032932;28;45401;-72
2023/05/07 03:04:02;;;;;;;;;22.00;19.00;;;;;16.84;83.82;101201.44;5021847;28;45470;-72
2023/05/07 03:06:27;;;;;;;;;23.67;22.33;;;;;16.77;84.13;101188.47;5020680;28;46473;-72
2023/05/07 03:08:52;;;;;;;;;22.00;18.33;;;;;16.80;84.19;101197.22;5015594;28;45465;-72
2023/05/07 03:11:18;;;;;;;;;21.00;18.00;;;;;16.75;84.93;101198.31;5015848;28;45342;-74
2023/05/07 03:13:43;;;;;;;;;22.67;19.67;;;;;16.83;84.78;101212.16;5015963;28;45408;-74
2023/05/07 03:16:08;;;;;;;;;20.67;16.33;;;;;16.80;84.00;101209.63;5015396;28;46644;-75
2023/05/07 03:18:34;;;;;;;;;18.33;18.33;;;;;16.78;84.75;101207.03;5015450;28;45256;-74
2023/05/07 03:20:59;;;;;;;;;16.00;15.00;;;;;16.70;85.94;101199.38;5015900;28;45224;-73
2023/05/07 03:23:24;;;;;;;;;20.00;19.00;;;;;16.71;86.27;101211.75;5015526;28;45355;-72
2023/05/07 03:25:50;;;;;;;;;17.00;16.33;;;;;16.65;87.74;101205.81;5015253;28;46253;-73
2023/05/07 03:28:15;;;;;;;;;20.67;18.00;;;;;16.58;87.82;101202.53;5015460;28;45312;-73
2023/05/07 03:30:40;;;;;;;;;17.00;16.67;;;;;16.41;88.00;101168.66;5015467;28;45353;-72
2023/05/07 03:33:06;;;;;;;;;28.67;22.67;;;;;16.63;88.23;101219.16;5015814;28;45310;-71
2023/05/07 03:35:31;;;;;;;;;19.00;19.00;;;;;16.61;88.90;101212.19;5015115;28;46306;-71
2023/05/07 03:37:56;;;;;;;;;24.33;20.67;;;;;16.63;89.39;101213.84;5014994;28;45239;-71
2023/05/07 03:40:22;;;;;;;;;16.67;15.33;;;;;16.56;90.29;101201.72;5015554;28;45448;-71
2023/05/07 03:42:47;;;;;;;;;18.33;18.33;;;;;16.57;90.27;101203.47;5015577;28;45529;-71
2023/05/07 03:45:12;;;;;;;;;23.00;21.67;;;;;16.56;90.72;101208.84;5014895;28;46461;-70
2023/05/07 03:47:38;;;;;;;;;21.00;18.00;;;;;16.32;90.91;101171.69;5015075;28;45208;-70
2023/05/07 03:50:04;;;;;;;;;24.67;22.00;;;;;16.55;90.52;101207.97;5015337;28;45462;-70
2023/05/07 03:52:30;;;;;;;;;21.00;18.33;;;;;16.53;91.73;101212.50;5015082;27;45457;-70
2023/05/07 03:54:55;;;;;;;;;21.00;14.00;;;;;16.31;92.54;101184.13;5014995;28;46626;-70
2023/05/07 03:57:20;;;;;;;;;14.33;12.67;;;;;16.46;92.29;101200.38;5014239;28;45359;-70
2023/05/07 03:59:46;;;;;;;;;15.67;13.33;;;;;16.49;92.64;101206.41;5015353;28;45324;-71
2023/05/07 04:02:11;;;;;;;;;18.67;16.67;;;;;16.52;92.55;101205.44;5015240;28;45415;-71
2023/05/07 04:04:36;;;;;;;;;13.67;13.00;;;;;16.56;91.96;101215.03;5015939;27;45609;-71
2023/05/07 04:07:02;;;;;;;;;16.67;13.67;;;;;16.61;92.22;101222.81;5015064;28;45363;-71
2023/05/07 04:09:28;;;;;;;;;14.00;11.67;;;;;16.57;91.93;101219.44;5015051;28;45266;-71
2023/05/07 04:11:53;;;;;;;;;13.00;11.33;;;;;16.61;92.09;101230.78;5015205;28;45462;-71
2023/05/07 04:14:18;;;;;;;;;15.33;11.00;;;;;16.51;92.18;101215.22;5014878;28;46311;-71
2023/05/07 04:16:44;;;;;;;;;17.00;13.33;;;;;16.64;91.88;101231.53;5014516;28;45490;-71
2023/05/07 04:19:09;;;;;;;;;16.67;13.33;;;;;16.61;91.85;101226.31;5015062;28;45256;-71
2023/05/07 04:21:34;;;;;;;;;17.33;14.67;;;;;16.58;92.58;101222.94;5015185;28;45235;-70
2023/05/07 04:24:00;;;;;;;;;13.00;13.00;;;;;16.62;91.87;101229.88;5013371;28;46471;-70
2023/05/07 04:26:25;;;;;;;;;17.00;13.33;;;;;16.65;91.70;101232.41;5014504;28;45229;-71
2023/05/07 04:28:51;;;;;;;;;15.00;13.67;;;;;16.54;90.91;101224.84;5015058;28;45707;-71
2023/05/07 04:31:16;;;;;;;;;12.00;11.00;;;;;16.45;92.92;101217.25;5015187;28;45169;-71
2023/05/07 04:33:41;;;;;;;;;22.33;19.67;;;;;16.47;93.94;101226.03;5014599;28;45773;-72
2023/05/07 04:36:07;;;;;;;;;16.33;14.67;;;;;16.53;94.71;101237.28;5014683;28;45318;-72
2023/05/07 04:38:33;;;;;;;;;11.33;10.00;;;;;16.47;95.19;101231.34;5014252;28;45381;-73
2023/05/07 04:41:03;;;;;;;;;15.00;12.67;;;;;16.54;95.83;101240.78;5015055;28;45472;-74
2023/05/07 04:43:28;;;;;;;;;12.00;10.33;;;;;16.51;95.66;101235.59;5014411;28;46453;-74
2023/05/07 04:45:54;;;;;;;;;12.33;11.33;;;;;16.48;95.13;101231.28;5013958;28;45402;-75
2023/05/07 04:48:20;;;;;;;;;13.00;11.00;;;;;16.44;94.60;101221.69;5014623;28;45219;-72
2023/05/07 04:50:51;;;;;;;;;11.33;11.33;;;;;16.58;94.50;101241.53;5014659;28;45528;-72
2023/05/07 04:53:17;;;;;;;;;11.67;10.00;;;;;16.53;94.55;101236.41;5014111;28;46342;-73
2023/05/07 04:55:42;;;;;;;;;11.00;9.67;;;;;16.53;94.41;101245.25;5014681;28;45316;-72
2023/05/07 04:58:08;;;;;;;;;13.67;8.67;;;;;16.56;93.52;101238.94;5014477;28;45293;-72
2023/05/07 05:00:34;;;;;;;;;13.33;12.00;;;;;16.43;94.68;101232.41;5014375;28;45540;-72
2023/05/07 05:02:59;;;;;;;;;10.75;9.00;;;;;16.45;94.23;101227.88;5014168;28;46570;-73
2023/05/07 05:05:24;;;;;;;;;10.67;9.33;;;;;16.50;94.71;101236.53;5014384;28;45331;-72
2023/05/07 05:07:51;;;;;;;;;9.67;9.00;;;;;16.54;95.05;101256.75;5014328;28;45362;-72
2023/05/07 05:10:17;;;;;;;;;9.00;9.00;;;;;16.47;94.50;101247.31;4996902;28;45662;-72
2023/05/07 05:12:42;;;;;;;;;13.00;9.00;;;;;16.46;94.34;101246.41;5013012;28;46238;-71
2023/05/07 05:15:08;;;;;;;;;13.00;10.67;;;;;16.36;95.60;101235.28;5014068;28;45305;-72
2023/05/07 05:17:34;;;;;;;;;9.67;9.67;;;;;16.40;96.10;101243.16;5014194;28;45367;-76
2023/05/07 05:20:00;;;;;;;;;9.67;9.00;;;;;16.36;96.87;101247.72;5014361;28;45782;-76
2023/05/07 05:22:25;;;;;;;;;21.67;19.00;;;;;16.35;97.09;101260.13;5013715;28;46107;-69
2023/05/07 05:24:51;;;;;;;;;11.50;11.00;;;;;16.36;98.06;101263.66;5013824;28;45717;-71
2023/05/07 05:27:16;;;;;;;;;10.33;9.33;;;;;16.36;98.36;101261.00;5014062;28;45504;-73
2023/05/07 05:29:41;;;;;;;;;9.67;8.67;;;;;16.34;98.75;101254.88;5014225;28;45250;-70
2023/05/07 05:32:07;;;;;;;;;11.33;11.33;;;;;16.40;98.28;101265.28;5013280;28;46678;-71
2023/05/07 05:34:33;;;;;;;;;11.00;8.00;;;;;16.44;97.97;101264.22;5013340;28;45430;-71
2023/05/07 05:36:59;;;;;;;;;7.00;7.00;;;;;16.45;97.74;101265.94;5013995;28;45373;-70
2023/05/07 05:39:24;;;;;;;;;7.67;7.67;;;;;16.47;97.68;101271.22;5013935;28;45579;-69
2023/05/07 05:41:49;;;;;;;;;7.50;6.75;;;;;16.41;98.32;101264.34;5012600;28;45584;-69
2023/05/07 05:44:15;;;;;;;;;7.67;7.67;;;;;16.54;97.72;101281.56;5013428;28;45462;-70
2023/05/07 05:46:40;;;;;;;;;8.25;6.50;;;;;16.59;96.90;101284.03;5013551;28;45370;-70
2023/05/07 05:49:05;;;;;;;;;8.25;6.00;;;;;16.58;96.74;101281.44;5013964;28;45395;-70
2023/05/07 05:51:31;;;;;;;;;7.67;7.67;;;;;16.42;96.87;101250.13;5013455;28;46383;-69
2023/05/07 05:53:56;;;;;;;;;9.67;6.67;;;;;16.64;94.89;101284.72;5013347;28;45285;-69
2023/05/07 05:56:21;;;;;;;;;11.33;11.33;;;;;16.64;95.29;101284.72;5013501;28;45513;-70
2023/05/07 05:58:47;;;;;;;;;8.33;8.33;;;;;16.53;96.10;101265.66;5013658;28;45380;-71
2023/05/07 06:01:12;;;;;;;;;14.33;11.00;;;;;16.50;97.29;101266.66;5013203;28;46389;-71
2023/05/07 06:03:38;;;;;;;;;10.33;10.00;;;;;16.56;96.47;101280.63;5013361;28;45349;-71
2023/05/07 06:06:03;;;;;;;;;12.00;10.67;;;;;16.65;96.81;101288.22;5013356;28;45388;-71
2023/05/07 06:08:31;;;;;;;;;14.33;11.67;;;;;16.59;97.51;101276.03;5013294;28;45280;-70
2023/05/07 06:10:57;;;;;;;;;11.33;9.67;;;;;16.60;96.13;101271.59;5013187;28;45683;-69
2023/05/07 06:13:23;;;;;;;;;11.67;10.00;;;;;16.66;96.44;101288.19;5013520;28;45308;-71
2023/05/07 06:15:49;;;;;;;;;12.67;12.67;;;;;16.65;96.78;101285.56;5013203;28;45778;-70
2023/05/07 06:18:14;;;;;;;;;11.33;9.67;;;;;16.64;96.67;101286.50;5013233;28;45415;-71
2023/05/07 06:20:40;;;;;;;;;13.33;11.67;;;;;16.64;97.29;101291.81;5014530;28;46319;-73
2023/05/07 06:23:05;;;;;;;;;15.33;15.33;;;;;16.61;97.43;101286.63;5016048;28;45266;-70
2023/05/07 06:25:30;;;;;;;;;17.67;15.00;;;;;16.54;97.53;101275.34;5016292;28;46147;-74
2023/05/07 06:27:56;;;;;;;;;19.67;12.67;;;;;16.66;96.55;101292.63;5016407;28;45480;-74
2023/05/07 06:30:21;;;;;;;;;17.00;14.67;;;;;16.63;96.24;101284.78;5016064;28;46803;-74
2023/05/07 06:32:46;;;;;;;;;19.33;14.67;;;;;16.66;97.16;101290.84;5015971;28;45346;-75
2023/05/07 06:35:11;;;;;;;;;14.67;14.67;;;;;16.70;97.26;101292.44;5016363;28;45439;-74
2023/05/07 06:37:38;;;;;;;;;16.33;14.67;;;;;16.74;97.99;101293.19;5016406;28;45350;-74
2023/05/07 06:40:05;;;;;;;;;13.33;13.33;;;;;16.53;97.06;101266.53;5015748;28;45278;-75
2023/05/07 06:42:30;;;;;;;;;14.33;12.67;;;;;16.76;97.45;101298.44;5015661;28;45384;-77
2023/05/07 06:48:59;;;;;;;;;17.67;11.00;;;;;16.93;96.59;101305.78;5016736;28;45418;-76
2023/05/07 06:51:24;;;;;;;;;10.33;10.33;;;;;16.95;97.09;101302.13;5014281;28;45603;-77
2023/05/07 06:53:49;;;;;;;;;9.33;9.33;;;;;16.93;96.29;101295.13;5032947;28;45603;-77
2023/05/07 06:56:15;;;;;;;;;10.33;10.33;;;;;16.98;96.23;101306.47;5033781;27;45552;-77
2023/05/07 06:58:40;;;;;;;;;7.00;7.00;;;;;17.03;96.30;101312.47;5033921;28;45457;-75
2023/05/07 07:01:05;;;;;;;;;14.33;9.67;;;;;17.05;95.89;101314.13;5033282;28;46674;-76
2023/05/07 07:03:31;;;;;;;;;13.33;10.00;;;;;17.06;95.70;101312.31;5033365;28;45790;-75
2023/05/07 07:05:56;;;;;;;;;6.75;6.00;;;;;17.08;95.00;101314.91;5033468;28;45426;-75
2023/05/07 07:08:22;;;;;;;;;8.67;7.67;;;;;17.04;95.49;101311.53;5033845;27;45829;-75
2023/05/07 07:10:48;;;;;;;;;10.00;8.33;;;;;17.09;95.24;101322.84;5033354;28;46320;-76
2023/05/07 07:13:13;;;;;;;;;11.33;9.33;;;;;17.08;94.77;101323.78;5033119;28;45472;-78
2023/05/07 07:15:39;;;;;;;;;9.33;7.33;;;;;17.12;95.91;101324.50;5033550;28;45390;-76
2023/05/07 07:18:05;;;;;;;;;8.00;8.00;;;;;17.09;95.00;101316.66;5033472;28;45296;-78
2023/05/07 07:20:30;;;;;;;;;7.25;7.25;;;;;17.13;95.67;101316.47;5033349;28;46395;-77
2023/05/07 07:22:56;;;;;;;;;7.00;7.00;;;;;17.10;95.56;101310.41;5033441;27;45741;-76
2023/05/07 07:25:21;;;;;;;;;10.67;9.33;;;;;17.12;95.96;101312.09;5033356;28;45791;-76
2023/05/07 07:27:47;;;;;;;;;10.33;7.00;;;;;17.17;96.09;101319.88;5033639;28;45496;-75
2023/05/07 07:30:12;;;;;;;;;8.33;8.33;;;;;17.20;95.24;101327.75;5033009;28;45941;-76
2023/05/07 07:32:38;;;;;;;;;7.50;7.50;;;;;17.18;94.96;101325.16;5032057;27;45378;-75
2023/05/07 07:35:04;;;;;;;;;6.00;6.00;;;;;17.21;95.09;101325.00;5033210;28;45531;-74
2023/05/07 07:37:30;;;;;;;;;7.67;6.00;;;;;17.22;94.80;101325.88;5033341;27;45544;-75
2023/05/07 07:39:55;;;;;;;;;13.33;10.00;;;;;17.18;96.09;101310.94;5033070;27;46044;-75
2023/05/07 07:42:20;;;;;;;;;10.67;8.67;;;;;17.23;94.39;101322.28;5032749;28;45398;-75
2023/05/07 07:44:46;;;;;;;;;10.67;7.00;;;;;17.25;94.45;101323.06;5032957;28;45402;-75
2023/05/07 07:47:11;;;;;;;;;8.33;8.33;;;;;17.20;94.48;101325.06;5033515;28;45378;-74
2023/05/07 07:49:36;;;;;;;;;13.00;9.33;;;;;17.24;95.27;101337.34;5033151;27;46162;-76
2023/05/07 07:52:02;;;;;;;;;14.00;12.33;;;;;17.26;95.78;101337.28;5032925;27;45731;-75
2023/05/07 07:54:29;;;;;;;;;12.67;10.33;;;;;17.28;95.02;101333.63;5032985;28;45505;-74
2023/05/07 07:56:54;;;;;;;;;12.67;11.67;;;;;17.30;95.30;101337.06;5032852;28;45762;-74
2023/05/07 07:59:20;;;;;;;;;14.00;11.00;;;;;17.27;96.01;101325.66;5032766;28;47171;-74
2023/05/07 08:01:45;;;;;;;;;14.33;11.33;;;;;17.29;95.71;101319.38;5032971;27;45682;-74
2023/05/07 08:04:10;;;;;;;;;12.67;10.00;;;;;17.40;95.56;101333.09;5032887;28;45316;-75
2023/05/07 08:06:36;;;;;;;;;13.00;10.00;;;;;17.48;94.41;101346.06;5032441;28;45380;-73
2023/05/07 08:09:02;;;;;;;;;11.67;11.67;;;;;17.50;95.61;101346.00;5032617;27;45644;-74
2023/05/07 08:11:28;;;;;;;;;11.33;9.33;;;;;17.48;94.29;101342.56;5032575;28;45648;-73
2023/05/07 08:13:54;;;;;;;;;12.00;12.00;;;;;17.58;95.68;101351.88;5032614;28;45363;-73
2023/05/07 08:16:20;;;;;;;;;13.33;11.33;;;;;17.40;94.82;101327.78;5032836;27;45517;-74
2023/05/07 08:18:45;;;;;;;;;11.67;11.67;;;;;17.61;95.56;101349.09;5032117;28;45756;-73
2023/05/07 08:21:11;;;;;;;;;17.33;13.33;;;;;17.59;95.59;101337.66;5032623;28;45446;-72
2023/05/07 08:23:36;;;;;;;;;10.00;8.67;;;;;17.67;94.80;101356.81;5032686;28;45865;-72
2023/05/07 08:26:01;;;;;;;;;13.67;13.67;;;;;17.61;94.62;101342.91;5032575;28;45374;-72
2023/05/07 08:28:27;;;;;;;;;12.67;11.00;;;;;17.63;94.47;101357.91;5031410;28;46240;-73
2023/05/07 08:30:53;;;;;;;;;18.33;17.00;;;;;17.65;94.51;101363.16;5032167;28;45405;-74
2023/05/07 08:33:18;;;;;;;;;14.00;13.33;;;;;17.69;94.01;101370.94;5032984;27;45701;-76
2023/05/07 08:35:43;;;;;;;;;26.00;25.33;;;;;17.73;95.34;101377.88;5032669;28;45345;-77
2023/05/07 08:38:09;;;;;;;;;13.67;13.67;;;;;17.80;94.17;101372.28;5032200;28;45472;-76
2023/05/07 08:40:37;;;;;;;;;25.00;21.33;;;;;17.79;95.06;101373.19;5031966;28;45425;-76
2023/05/07 08:43:05;;;;;;;;;19.33;19.33;;;;;17.75;94.41;101376.00;5031566;27;45528;-76
2023/05/07 08:45:33;;;;;;;;;22.33;18.67;;;;;17.83;94.29;101385.47;5032069;27;45935;-76
2023/05/07 08:48:01;;;;;;;;;22.00;21.00;;;;;17.85;94.32;101381.81;5032199;28;46328;-75
2023/05/07 08:50:26;;;;;;;;;20.67;17.67;;;;;17.76;93.70;101358.22;5032143;28;45328;-74
2023/05/07 08:52:52;;;;;;;;;24.33;21.67;;;;;17.91;94.07;101386.03;5032204;28;45303;-74
2023/05/07 08:55:18;;;;;;;;;23.67;22.67;;;;;17.72;94.99;101344.16;5032212;28;45361;-70
2023/05/07 08:57:44;;;;;;;;;23.00;21.67;;;;;17.94;94.73;101385.91;5031662;28;47191;-73
2023/05/07 09:00:11;;;;;;;;;21.33;19.00;;;;;17.83;93.34;101359.66;5032075;28;45466;-72
2023/05/07 09:02:36;;;;;;;;;21.00;21.00;;;;;18.01;92.99;101383.84;5032388;27;45419;-74
2023/05/07 09:05:02;;;;;;;;;24.00;19.67;;;;;18.08;92.36;101395.94;5032098;28;45735;-73
2023/05/07 09:07:28;;;;;;;;;20.67;19.33;;;;;18.10;92.97;101397.63;5031950;28;46477;-74
2023/05/07 09:09:55;;;;;;;;;21.33;19.67;;;;;18.07;91.82;101386.25;5031853;28;45374;-73
2023/05/07 09:12:21;;;;;;;;;21.67;19.00;;;;;18.13;92.52;101391.28;5031095;28;45474;-76
2023/05/07 09:14:46;;;;;;;;;21.67;18.33;;;;;18.17;92.39;101397.38;5031996;28;45477;-77
2023/05/07 09:17:12;;;;;;;;;19.67;17.67;;;;;18.20;91.98;101400.75;5031578;28;46182;-77
2023/05/07 09:19:37;;;;;;;;;15.67;13.67;;;;;18.23;91.04;101407.75;5031595;27;45419;-77
2023/05/07 09:22:04;;;;;;;;;19.00;18.00;;;;;18.06;92.37;101382.69;5031974;27;45338;-77
2023/05/07 09:24:34;;;;;;;;;19.00;18.33;;;;;18.15;93.37;101396.56;5031265;28;45378;-80
2023/05/07 09:27:01;;;;;;;;;21.33;15.67;;;;;18.25;92.45;101406.75;5031225;28;46648;-71
2023/05/07 09:29:28;;;;;;;;;21.33;19.00;;;;;18.26;91.25;101407.59;5031240;27;45331;-69
2023/05/07 09:31:54;;;;;;;;;22.67;17.33;;;;;18.31;92.79;101410.06;5031510;27;45682;-71
2023/05/07 09:34:20;;;;;;;;;27.67;20.00;;;;;18.26;92.30;101397.81;5031811;28;45403;-72
2023/05/07 09:36:45;;;;;;;;;14.33;13.67;;;;;18.33;90.69;101402.84;5031339;28;45741;-73
2023/05/07 09:39:11;;;;;;;;;21.33;19.33;;;;;18.35;90.56;101407.19;5031449;28;45742;-72
2023/05/07 09:41:46;;;;;;;;;20.67;18.67;;;;;18.37;90.96;101412.44;5031162;28;45489;-71
2023/05/07 09:44:14;;;;;;;;;23.67;20.33;;;;;18.37;91.59;101407.13;5038462;27;45606;-73
2023/05/07 09:46:42;;;;;;;;;23.33;20.00;;;;;18.40;91.62;101414.97;5138479;27;45819;-73
2023/05/07 09:49:15;;;;;;;;;22.67;20.00;;;;;18.45;91.25;101404.97;5138615;27;45431;-73
2023/05/07 09:51:45;;;;;;;;;21.33;19.67;;;;;18.51;91.67;101418.03;5138997;27;45404;-73
2023/05/07 09:54:11;;;;;;;;;21.33;18.33;;;;;18.55;92.26;101414.28;5139054;27;45409;-73
2023/05/07 09:56:41;;;;;;;;;20.33;18.00;;;;;18.60;90.98;101419.41;5141861;27;46686;-74
2023/05/07 09:59:08;;;;;;;;;22.00;19.00;;;;;18.52;89.28;101409.09;5142323;27;45166;-73
2023/05/07 10:01:36;;;;;;;;;24.00;22.33;;;;;18.48;90.16;101414.66;5142438;27;45394;-73
2023/05/07 10:04:03;;;;;;;;;21.67;20.33;;;;;18.50;90.72;101421.66;5142447;27;45489;-74
2023/05/07 10:06:30;;;;;;;;;25.00;23.33;;;;;18.41;90.22;101411.38;5142196;27;46479;-73
2023/05/07 10:08:56;;;;;;;;;19.67;19.00;;;;;18.44;89.22;101419.25;5142150;27;45341;-75
2023/05/07 10:11:22;;;;;;;;;23.00;18.00;;;;;18.40;90.29;101421.19;5141872;27;45468;-74
2023/05/07 10:13:48;;;;;;;;;29.00;27.00;;;;;18.40;90.31;101430.97;5142366;27;45483;-73
2023/05/07 10:16:14;;;;;;;;;26.67;21.00;;;;;18.40;90.91;101428.31;5141826;27;46073;-73
2023/05/07 10:18:43;;;;;;;;;23.67;20.00;;;;;18.34;90.52;101425.91;5141951;27;45256;-75
2023/05/07 10:21:15;;;;;;;;;24.00;21.33;;;;;18.40;90.61;101431.84;5142201;27;45431;-73
2023/05/07 10:24:05;;;;;;;;;24.00;20.00;;;;;18.37;89.95;101423.13;5142115;27;45534;-75
2023/05/07 10:26:32;;;;;;;;;20.67;20.00;;;;;18.33;89.51;101410.84;5141461;27;47234;-73
2023/05/07 10:29:21;;;;;;;;;16.67;16.00;;;;;18.39;88.79;101430.13;5142006;27;45620;-73
2023/05/07 10:32:04;;;;;;;;;17.67;17.67;;;;;18.45;90.62;101439.66;5141816;27;45473;-75
2023/05/07 10:34:38;;;;;;;;;21.67;17.00;;;;;18.53;90.09;101437.50;5142280;27;45347;-73
2023/05/07 10:37:04;;;;;;;;;25.00;20.67;;;;;18.54;89.55;101431.22;5141541;27;46714;-72
2023/05/07 10:39:30;;;;;;;;;18.33;18.33;;;;;18.45;90.29;101418.31;5141592;27;45250;-73
2023/05/07 10:41:56;;;;;;;;;16.00;16.00;;;;;18.54;89.59;101433.03;5141521;27;45431;-72
2023/05/07 10:44:28;;;;;;;;;14.33;14.33;;;;;18.50;89.92;101424.31;5141757;27;45460;-72
2023/05/07 10:47:09;;;;;;;;;23.33;21.33;;;;;18.52;90.52;101426.91;5141757;27;46207;-71
2023/05/07 10:49:43;;;;;;;;;22.00;15.33;;;;;18.55;91.07;101430.28;5141661;27;45445;-72
2023/05/07 10:52:27;;;;;;;;;20.33;20.33;;;;;18.50;90.17;101410.97;5141585;27;45413;-72
2023/05/07 10:55:25;;;;;;;;;15.33;14.67;;;;;18.62;89.16;101441.56;5141844;27;45428;-71
2023/05/07 10:57:50;;;;;;;;;22.00;19.33;;;;;18.57;89.48;101432.88;5141191;27;46768;-71
2023/05/07 11:00:25;;;;;;;;;22.33;18.00;;;;;18.53;89.50;101437.50;5141478;27;45476;-72
2023/05/07 11:03:02;;;;;;;;;15.33;12.67;;;;;18.55;89.54;101440.09;5141965;27;45215;-73
2023/05/07 11:05:32;;;;;;;;;33.00;32.33;;;;;18.49;89.52;101435.91;5141656;27;45206;-72
2023/05/07 11:08:00;;;;;;;;;13.33;11.67;;;;;18.56;89.58;101442.69;5141268;27;45369;-74
2023/05/07 11:10:48;;;;;;;;;12.00;12.00;;;;;18.59;88.84;101447.91;5141248;27;45445;-73
2023/05/07 11:13:14;;;;;;;;;12.00;10.33;;;;;18.60;88.86;101446.97;5141315;27;45288;-73